Time;durP1;ratioP1;P1;durP2;ratioP2;P2;SDS_P1;SDS_P2;PMS_P1;PMS_P2;Temp;Humidity;BMP_temperature;BMP_pressure;BME280_temperature;BME280_humidity;BME280_pressure;Samples;Min_cycle;Max_cycle;Signal;HPM_P1;HPM_P2
2023/12/02 00:02:18;;;;;;;26.75;10.00;;;;;;;1.24;83.10;98718.56;4935823;28;20051;-89
2023/12/02 00:04:45;;;;;;;24.98;10.63;;;;;;;1.19;83.10;98711.97;4969208;28;20054;-87
2023/12/02 00:07:12;;;;;;;30.10;12.05;;;;;;;1.26;84.12;98718.47;4932885;28;20062;-89
2023/12/02 00:09:39;;;;;;;22.98;9.77;;;;;;;1.30;83.22;98722.56;4963688;28;20403;-87
2023/12/02 00:12:06;;;;;;;29.75;11.38;;;;;;;1.16;83.21;98714.81;4931954;28;20054;-89
2023/12/02 00:14:33;;;;;;;23.50;8.98;;;;;;;1.28;83.30;98720.03;4951582;28;20450;-89
2023/12/02 00:17:00;;;;;;;26.40;9.98;;;;;;;1.10;82.54;98710.84;4912416;28;20047;-89
2023/12/02 00:19:27;;;;;;;24.48;9.90;;;;;;;1.13;82.89;98705.41;4960173;28;20054;-89
2023/12/02 00:21:54;;;;;;;26.42;10.38;;;;;;;1.06;82.38;98709.38;4964031;28;20050;-89
2023/12/02 00:24:21;;;;;;;27.52;9.48;;;;;;;1.12;83.33;98708.97;4942371;28;20459;-89
2023/12/02 00:26:48;;;;;;;23.80;9.43;;;;;;;1.25;82.82;98717.66;4963534;28;20618;-88
2023/12/02 00:29:15;;;;;;;28.98;10.82;;;;;;;1.20;82.55;98721.53;4948476;28;20057;-89
2023/12/02 00:31:42;;;;;;;23.80;10.02;;;;;;;1.03;81.73;98722.66;4944173;28;20058;-89
2023/12/02 00:34:09;;;;;;;28.77;10.40;;;;;;;1.11;81.93;98725.56;4966324;28;20471;-89
2023/12/02 00:36:36;;;;;;;26.60;10.95;;;;;;;0.97;81.35;98723.91;4944465;28;20142;-88
2023/12/02 00:39:03;;;;;;;25.77;9.85;;;;;;;1.00;81.68;98715.84;4966614;28;20390;-89
2023/12/02 00:41:30;;;;;;;24.95;9.43;;;;;;;1.13;82.42;98713.25;4963878;28;20049;-88
2023/12/02 00:43:57;;;;;;;23.60;9.85;;;;;;;1.06;81.26;98718.03;4928768;28;20222;-88
2023/12/02 00:46:24;;;;;;;24.35;10.13;;;;;;;1.11;82.20;98720.34;4960430;28;20047;-89
2023/12/02 00:48:51;;;;;;;23.15;8.98;;;;;;;1.18;81.72;98715.56;4976301;28;20134;-89
2023/12/02 00:51:18;;;;;;;26.88;10.15;;;;;;;1.03;81.37;98731.31;4917429;28;20141;-89
2023/12/02 00:53:45;;;;;;;27.17;9.85;;;;;;;1.17;81.98;98742.63;4952206;28;20070;-89
2023/12/02 00:56:12;;;;;;;27.17;10.10;;;;;;;1.14;82.92;98732.38;4962785;28;20051;-88
2023/12/02 00:58:39;;;;;;;24.35;9.52;;;;;;;1.10;82.07;98739.59;4963894;28;20057;-89
2023/12/02 01:01:08;;;;;;;26.33;10.18;;;;;;;1.10;81.80;98733.53;4947769;28;20124;-88
2023/12/02 01:03:35;;;;;;;25.15;10.55;;;;;;;1.05;81.45;98737.28;4947206;28;20084;-89
2023/12/02 01:06:02;;;;;;;28.15;10.52;;;;;;;1.05;81.56;98747.75;4963168;28;20055;-88
2023/12/02 01:08:29;;;;;;;24.33;9.27;;;;;;;1.06;81.03;98748.56;4946323;28;20050;-89
2023/12/02 01:10:56;;;;;;;26.08;9.65;;;;;;;0.88;80.41;98742.78;4951372;28;20049;-88
2023/12/02 01:13:23;;;;;;;28.65;10.15;;;;;;;0.97;80.17;98750.03;4959085;28;20043;-88
2023/12/02 01:15:50;;;;;;;24.77;10.32;;;;;;;0.98;81.11;98750.88;4954164;28;20055;-89
2023/12/02 01:18:16;;;;;;;28.55;9.88;;;;;;;0.90;80.77;98756.59;4962992;28;21597;-89
2023/12/02 01:20:44;;;;;;;26.02;10.82;;;;;;;0.92;80.78;98759.97;4934807;28;20047;-88
2023/12/02 01:23:11;;;;;;;24.15;9.43;;;;;;;0.93;80.74;98766.03;4937582;28;20051;-89
2023/12/02 01:25:37;;;;;;;26.88;9.93;;;;;;;0.83;80.19;98755.31;4962248;28;20086;-87
2023/12/02 01:28:04;;;;;;;24.25;9.13;;;;;;;0.97;80.92;98757.88;4914978;28;20481;-89
2023/12/02 01:30:31;;;;;;;25.75;10.18;;;;;;;1.01;81.26;98753.28;4954179;28;20061;-89
2023/12/02 01:32:58;;;;;;;22.52;9.52;;;;;;;1.02;80.63;98758.41;4967798;28;20142;-88
2023/12/02 01:35:25;;;;;;;27.10;9.98;;;;;;;0.97;80.52;98751.81;4968420;28;20050;-89
2023/12/02 01:37:52;;;;;;;31.08;10.32;;;;;;;0.79;80.13;98759.94;4947004;28;20463;-88
2023/12/02 01:40:19;;;;;;;24.00;9.27;;;;;;;0.92;80.20;98765.19;4935819;28;20403;-89
2023/12/02 01:42:46;;;;;;;22.10;9.60;;;;;;;0.75;80.16;98763.66;4996092;28;20046;-88
2023/12/02 01:45:14;;;;;;;26.67;10.90;;;;;;;0.73;80.89;98768.16;4914352;28;20054;-89
2023/12/02 01:47:42;;;;;;;28.75;10.90;;;;;;;0.75;80.57;98775.91;4927427;28;20484;-88
2023/12/02 01:50:09;;;;;;;33.38;11.60;;;;;;;0.67;80.42;98763.34;4971578;28;20089;-89
2023/12/02 01:52:36;;;;;;;27.75;10.25;;;;;;;0.67;80.94;98765.94;4960990;28;20051;-88
2023/12/02 01:55:04;;;;;;;27.63;10.18;;;;;;;0.72;81.10;98768.28;4962187;28;20995;-89
2023/12/02 01:57:31;;;;;;;31.77;11.25;;;;;;;0.73;81.04;98777.78;4953575;28;20050;-89
2023/12/02 01:59:58;;;;;;;27.85;10.55;;;;;;;0.80;80.71;98779.06;4945790;28;20530;-88
2023/12/02 02:02:25;;;;;;;24.85;9.55;;;;;;;0.89;81.36;98783.69;4930564;28;20129;-89
2023/12/02 02:04:52;;;;;;;23.67;10.13;;;;;;;0.84;81.32;98778.75;4929674;28;20051;-89
2023/12/02 02:07:21;;;;;;;26.77;11.18;;;;;;;0.73;81.76;98786.44;4970907;28;20054;-88
2023/12/02 02:09:48;;;;;;;27.13;11.43;;;;;;;0.66;81.98;98779.94;4959794;28;20066;-88
2023/12/02 02:12:16;;;;;;;29.40;11.27;;;;;;;0.72;82.23;98794.41;4948076;28;20158;-88
2023/12/02 02:14:43;;;;;;;30.27;10.95;;;;;;;0.81;81.80;98794.63;4971563;28;20055;-89
2023/12/02 02:17:10;;;;;;;23.85;9.98;;;;;;;0.92;81.49;98795.72;4929090;28;20050;-88
2023/12/02 02:19:37;;;;;;;34.80;11.30;;;;;;;0.87;81.94;98790.78;4929817;28;20451;-88
2023/12/02 02:22:04;;;;;;;29.90;10.95;;;;;;;0.78;82.04;98788.75;4976187;28;20046;-89
2023/12/02 02:24:31;;;;;;;27.77;10.50;;;;;;;0.59;83.11;98782.13;4973346;28;20043;-88
2023/12/02 02:26:58;;;;;;;31.55;11.00;;;;;;;0.69;83.47;98778.91;4929829;28;20504;-88
2023/12/02 02:29:25;;;;;;;30.15;10.85;;;;;;;0.68;82.27;98777.22;4961444;28;20125;-88
2023/12/02 02:31:52;;;;;;;34.00;11.07;;;;;;;0.51;84.37;98784.41;4961207;28;20046;-88
2023/12/02 02:34:19;;;;;;;29.90;10.50;;;;;;;0.57;84.22;98784.00;4955149;28;20544;-89
2023/12/02 02:36:46;;;;;;;28.52;10.73;;;;;;;0.61;84.52;98787.22;4961641;28;20473;-88
2023/12/02 02:39:12;;;;;;;28.60;11.13;;;;;;;0.58;85.35;98782.22;4961698;28;20053;-89
2023/12/02 02:41:39;;;;;;;31.77;11.65;;;;;;;0.70;84.39;98783.19;4945947;28;20050;-89
2023/12/02 02:44:06;;;;;;;27.65;11.02;;;;;;;0.69;85.15;98790.22;4961436;28;20051;-88
2023/12/02 02:46:33;;;;;;;27.95;10.88;;;;;;;0.76;84.72;98783.63;4929771;28;20042;-89
2023/12/02 02:49:00;;;;;;;28.75;10.02;;;;;;;0.76;83.48;98778.41;4961833;28;20046;-89
2023/12/02 02:51:27;;;;;;;30.85;11.00;;;;;;;0.74;84.20;98780.31;4954313;28;20051;-89
2023/12/02 02:53:54;;;;;;;33.53;11.65;;;;;;;0.73;85.17;98772.53;4950720;28;20053;-87
2023/12/02 02:56:21;;;;;;;30.25;11.13;;;;;;;0.77;85.23;98782.72;4945291;28;20047;-89
2023/12/02 02:58:48;;;;;;;30.27;10.68;;;;;;;0.88;84.29;98789.00;4951418;28;20414;-89
2023/12/02 03:01:15;;;;;;;27.23;12.10;;;;;;;0.89;83.61;98788.91;4945760;28;20542;-88
2023/12/02 03:03:42;;;;;;;33.58;10.88;;;;;;;0.85;84.47;98800.50;4952152;28;20481;-89
2023/12/02 03:06:09;;;;;;;28.58;11.00;;;;;;;0.85;84.85;98792.66;4957440;28;20496;-89
2023/12/02 03:08:35;;;;;;;36.78;13.50;;;;;;;0.88;85.16;98789.84;4958156;28;20069;-90
2023/12/02 03:11:02;;;;;;;48.22;13.38;;;;;;;0.89;84.68;98799.38;4929090;28;20047;-88
2023/12/02 03:13:29;;;;;;;37.42;12.57;;;;;;;0.94;84.74;98810.38;4944991;28;20065;-89
2023/12/02 03:15:56;;;;;;;28.45;11.07;;;;;;;0.91;84.76;98797.47;4959015;28;20058;-88
2023/12/02 03:18:23;;;;;;;34.38;12.52;;;;;;;0.97;84.94;98802.31;4974016;28;20047;-89
2023/12/02 03:20:50;;;;;;;34.67;12.35;;;;;;;0.99;85.17;98803.06;4978992;28;20058;-88
2023/12/02 03:23:17;;;;;;;32.20;11.00;;;;;;;1.02;85.04;98810.69;4967686;28;20514;-89
2023/12/02 03:25:44;;;;;;;33.67;12.75;;;;;;;1.03;84.46;98803.69;4961208;28;20035;-89
2023/12/02 03:28:12;;;;;;;34.10;12.80;;;;;;;1.03;84.66;98801.06;4962249;28;20090;-89
2023/12/02 03:30:39;;;;;;;30.67;11.80;;;;;;;1.12;84.01;98799.59;4982804;28;20047;-88
2023/12/02 03:33:06;;;;;;;31.67;12.23;;;;;;;1.06;84.13;98801.69;4965458;28;20432;-88
2023/12/02 03:35:33;;;;;;;35.05;11.32;;;;;;;1.02;84.83;98795.00;4964718;28;20136;-87
2023/12/02 03:38:00;;;;;;;35.65;11.90;;;;;;;1.05;85.10;98797.41;4965077;28;20074;-88
2023/12/02 03:40:27;;;;;;;36.95;13.25;;;;;;;1.06;85.70;98799.06;4964837;28;20109;-88
2023/12/02 03:42:54;;;;;;;34.90;12.13;;;;;;;1.03;85.79;98807.13;4948571;28;20066;-87
2023/12/02 03:45:21;;;;;;;37.85;13.32;;;;;;;0.95;84.26;98798.13;4964757;28;20149;-89
2023/12/02 03:47:48;;;;;;;34.15;12.68;;;;;;;0.86;84.17;98802.16;4948782;28;20055;-88
2023/12/02 03:50:15;;;;;;;32.70;12.07;;;;;;;0.94;84.71;98801.66;4929243;28;20150;-87
2023/12/02 03:52:45;;;;;;;32.67;12.32;;;;;;;0.89;84.47;98806.34;4965414;28;20063;-88
2023/12/02 03:55:11;;;;;;;33.45;12.27;;;;;;;0.98;84.40;98806.59;4945471;28;20054;-87
2023/12/02 03:57:39;;;;;;;33.22;11.82;;;;;;;0.97;83.88;98806.72;4930623;28;20072;-88
2023/12/02 04:00:10;;;;;;;31.83;12.60;;;;;;;0.97;83.31;98817.16;4945631;28;20055;-89
2023/12/02 04:02:38;;;;;;;30.70;11.70;;;;;;;0.97;83.24;98825.00;4945505;28;20803;-89
2023/12/02 04:05:09;;;;;;;30.48;12.55;;;;;;;1.03;83.22;98822.81;4964735;28;20454;-88
2023/12/02 04:07:36;;;;;;;34.97;12.68;;;;;;;0.99;83.20;98821.34;4948624;28;20053;-89
2023/12/02 04:10:04;;;;;;;35.38;12.73;;;;;;;1.00;83.69;98823.03;4948290;28;20058;-88
2023/12/02 04:12:31;;;;;;;39.40;13.52;;;;;;;0.95;82.79;98812.03;4958154;28;20054;-89
2023/12/02 04:14:58;;;;;;;32.45;13.65;;;;;;;0.85;82.56;98813.56;4961328;28;20051;-89
2023/12/02 04:17:29;;;;;;;31.85;11.23;;;;;;;0.77;81.45;98811.44;4960303;28;20054;-88
2023/12/02 04:19:56;;;;;;;31.83;12.90;;;;;;;0.82;81.62;98821.63;4960967;28;20114;-88
2023/12/02 04:22:22;;;;;;;33.63;12.32;;;;;;;0.86;81.93;98825.69;4944761;28;20098;-89
2023/12/02 04:24:49;;;;;;;35.15;12.10;;;;;;;0.73;81.25;98841.31;4961085;28;20043;-89
2023/12/02 04:27:16;;;;;;;33.92;12.52;;;;;;;0.78;80.99;98844.47;4945064;28;20069;-89
2023/12/02 04:29:43;;;;;;;34.55;13.45;;;;;;;0.78;81.08;98846.25;4944461;28;20431;-88
2023/12/02 04:32:10;;;;;;;35.55;12.75;;;;;;;0.67;81.62;98856.56;4973738;28;20504;-89
2023/12/02 04:34:37;;;;;;;35.47;12.30;;;;;;;0.75;81.44;98844.66;4947617;28;20384;-89
2023/12/02 04:37:04;;;;;;;27.83;10.43;;;;;;;0.61;79.97;98848.19;4968988;28;20046;-89
2023/12/02 04:39:31;;;;;;;29.55;10.57;;;;;;;0.56;80.28;98852.00;4946168;28;20047;-89
2023/12/02 04:41:57;;;;;;;29.33;11.80;;;;;;;0.61;81.40;98863.84;4943767;28;20129;-89
2023/12/02 04:44:25;;;;;;;28.45;11.80;;;;;;;0.54;80.10;98862.56;4957523;28;20055;-88
2023/12/02 04:46:52;;;;;;;32.88;11.90;;;;;;;0.63;80.14;98863.75;4942545;28;20554;-90
2023/12/02 04:49:19;;;;;;;30.98;11.20;;;;;;;0.74;79.54;98866.53;4968475;28;20051;-88
2023/12/02 04:51:46;;;;;;;26.17;10.50;;;;;;;0.66;79.98;98873.97;4963512;28;20043;-88
2023/12/02 04:54:13;;;;;;;32.28;11.50;;;;;;;0.71;80.58;98874.53;4963170;28;20667;-87
2023/12/02 04:56:40;;;;;;;32.47;11.50;;;;;;;0.80;80.25;98875.75;4946528;28;20050;-87
2023/12/02 04:59:07;;;;;;;29.58;12.38;;;;;;;0.72;80.20;98891.91;4944252;28;20500;-89
2023/12/02 05:01:33;;;;;;;29.88;11.30;;;;;;;0.62;79.39;98894.25;4959559;28;20141;-89
2023/12/02 05:04:00;;;;;;;30.75;12.32;;;;;;;0.73;80.24;98898.78;4943532;28;20182;-90
2023/12/02 05:06:27;;;;;;;31.90;12.35;;;;;;;0.73;80.34;98906.63;4958397;28;20050;-90
2023/12/02 05:08:54;;;;;;;33.40;12.25;;;;;;;0.61;79.70;98918.72;4962018;28;20058;-88
2023/12/02 05:11:21;;;;;;;29.85;11.77;;;;;;;0.73;80.09;98917.09;4946819;28;20050;-89
2023/12/02 05:13:48;;;;;;;30.85;12.77;;;;;;;0.61;79.78;98920.47;4947101;28;20134;-88
2023/12/02 05:16:15;;;;;;;30.27;11.55;;;;;;;0.75;80.44;98917.00;4931050;28;20144;-89
2023/12/02 05:18:42;;;;;;;35.97;13.77;;;;;;;0.84;80.49;98932.09;4946486;28;20065;-88
2023/12/02 05:21:09;;;;;;;39.88;13.18;;;;;;;0.81;80.24;98934.91;4947025;28;20051;-88
2023/12/02 05:23:36;;;;;;;34.50;13.30;;;;;;;0.78;80.63;98951.59;4946663;28;20054;-88
2023/12/02 05:26:03;;;;;;;29.13;11.55;;;;;;;0.78;79.68;98953.38;4947059;28;21793;-88
2023/12/02 05:28:30;;;;;;;37.67;12.65;;;;;;;0.73;80.05;98953.66;4968230;28;20046;-88
2023/12/02 05:30:57;;;;;;;37.85;13.68;;;;;;;0.76;80.49;98956.09;4962347;28;20050;-89
2023/12/02 05:33:24;;;;;;;33.08;12.25;;;;;;;0.68;80.07;98957.50;4947373;28;20125;-88
2023/12/02 05:35:51;;;;;;;34.65;12.25;;;;;;;0.66;80.38;98957.59;4953574;28;20482;-88
2023/12/02 05:38:17;;;;;;;36.17;12.18;;;;;;;0.65;80.23;98964.59;4962489;28;20126;-88
2023/12/02 05:40:44;;;;;;;37.25;13.18;;;;;;;0.63;80.47;98971.69;4943119;28;20069;-88
2023/12/02 05:43:11;;;;;;;31.42;12.77;;;;;;;0.60;80.32;98979.72;4975195;28;20063;-90
2023/12/02 05:45:38;;;;;;;35.13;11.75;;;;;;;0.53;79.70;98978.41;4943521;28;20488;-88
2023/12/02 05:48:05;;;;;;;36.28;13.73;;;;;;;0.59;80.77;98972.00;4930636;28;20400;-89
2023/12/02 05:50:32;;;;;;;36.15;13.70;;;;;;;0.61;80.79;98970.97;4946719;28;20097;-89
2023/12/02 05:52:59;;;;;;;39.75;14.45;;;;;;;0.49;80.20;98968.25;4946036;28;20047;-88
2023/12/02 05:55:26;;;;;;;36.70;13.15;;;;;;;0.54;80.60;98966.22;4963008;28;20126;-89
2023/12/02 05:57:53;;;;;;;35.05;13.15;;;;;;;0.48;80.62;98970.00;4947073;28;20503;-89
2023/12/02 06:00:20;;;;;;;34.60;12.20;;;;;;;0.49;80.70;98966.47;4962135;28;20039;-88
2023/12/02 06:02:47;;;;;;;39.08;13.88;;;;;;;0.43;79.83;98978.16;4930345;28;20445;-90
2023/12/02 06:05:13;;;;;;;34.67;13.02;;;;;;;0.52;80.07;98976.75;4945808;28;20054;-88
2023/12/02 06:07:40;;;;;;;34.47;12.27;;;;;;;0.62;80.46;98974.41;4946771;28;20161;-88
2023/12/02 06:10:08;;;;;;;35.08;13.02;;;;;;;0.64;80.92;98983.84;4965016;28;20050;-88
2023/12/02 06:12:35;;;;;;;32.13;13.50;;;;;;;0.62;80.76;98985.69;4933123;28;20053;-89
2023/12/02 06:15:02;;;;;;;34.08;11.55;;;;;;;0.73;79.90;98984.19;4978172;28;20100;-89
2023/12/02 06:17:29;;;;;;;43.97;13.50;;;;;;;0.62;80.58;98997.91;4926572;28;20039;-89
2023/12/02 06:19:56;;;;;;;45.08;13.48;;;;;;;0.64;79.92;99002.13;4942785;28;20046;-88
2023/12/02 06:22:23;;;;;;;35.97;11.98;;;;;;;0.68;80.30;99002.75;4958970;28;20058;-89
2023/12/02 06:24:50;;;;;;;36.10;12.90;;;;;;;0.53;80.61;99014.97;4942940;28;20055;-88
2023/12/02 06:27:17;;;;;;;41.78;14.05;;;;;;;0.55;80.19;99013.13;4958655;28;20061;-88
2023/12/02 06:29:44;;;;;;;33.67;12.63;;;;;;;0.52;81.11;99021.16;4972849;28;20038;-89
2023/12/02 06:32:10;;;;;;;33.10;11.32;;;;;;;0.57;79.52;99016.47;4961153;28;20436;-90
2023/12/02 06:34:37;;;;;;;34.72;12.05;;;;;;;0.51;79.47;99024.69;4945688;28;20130;-89
2023/12/02 06:37:05;;;;;;;35.45;12.25;;;;;;;0.50;80.05;99028.22;4930109;28;20061;-91
2023/12/02 06:39:32;;;;;;;38.60;13.20;;;;;;;0.43;80.21;99029.53;4961183;28;20072;-89
2023/12/02 06:41:59;;;;;;;39.22;14.25;;;;;;;0.45;80.65;99037.28;4944324;28;20055;-89
2023/12/02 06:44:26;;;;;;;59.53;24.17;;;;;;;0.26;79.76;99034.94;4935912;28;20077;-90
2023/12/02 06:46:53;;;;;;;35.00;12.77;;;;;;;0.29;79.99;99032.13;4951866;28;20042;-89
2023/12/02 06:49:19;;;;;;;38.15;11.98;;;;;;;0.44;79.91;99039.06;4929744;28;20053;-89
2023/12/02 06:51:46;;;;;;;36.78;11.75;;;;;;;0.47;80.09;99046.69;4961209;28;20039;-90
2023/12/02 06:54:13;;;;;;;36.50;13.13;;;;;;;0.50;80.77;99043.91;4932747;28;20043;-89
2023/12/02 06:56:41;;;;;;;37.80;12.98;;;;;;;0.52;80.70;99043.81;4942432;28;20460;-89
2023/12/02 06:59:07;;;;;;;43.25;13.60;;;;;;;0.53;80.79;99051.53;4930360;28;20067;-89
2023/12/02 07:01:35;;;;;;;44.53;16.63;;;;;;;0.52;81.31;99054.28;4945259;28;20406;-89
2023/12/02 07:04:02;;;;;;;45.28;13.85;;;;;;;0.53;81.36;99063.78;4945265;28;20624;-89
2023/12/02 07:06:29;;;;;;;42.10;13.48;;;;;;;0.55;80.78;99059.31;4946233;28;20046;-89
2023/12/02 07:08:56;;;;;;;30.35;12.13;;;;;;;0.55;80.61;99077.59;4961636;28;20209;-89
2023/12/02 07:11:23;;;;;;;31.40;11.40;;;;;;;0.58;79.77;99070.41;4949956;28;20113;-89
2023/12/02 07:13:50;;;;;;;45.25;15.13;;;;;;;0.53;80.79;99075.06;4964536;28;20043;-89
2023/12/02 07:16:17;;;;;;;44.17;15.30;;;;;;;0.54;80.65;99068.91;4935349;28;20499;-90
2023/12/02 07:18:44;;;;;;;44.92;14.32;;;;;;;0.48;80.45;99078.88;4959927;28;20107;-89
2023/12/02 07:21:11;;;;;;;41.28;14.68;;;;;;;0.43;81.09;99079.16;4964137;28;20046;-90
2023/12/02 07:23:38;;;;;;;38.58;13.68;;;;;;;0.49;80.91;99078.78;4978008;28;20062;-88
2023/12/02 07:26:05;;;;;;;38.53;13.05;;;;;;;0.40;81.29;99076.72;4984178;28;20042;-90
2023/12/02 07:28:32;;;;;;;40.67;13.50;;;;;;;0.43;81.79;99077.41;4950086;28;20047;-88
2023/12/02 07:30:58;;;;;;;51.13;15.57;;;;;;;0.43;81.33;99084.38;4960560;28;20047;-89
2023/12/02 07:33:25;;;;;;;33.90;12.02;;;;;;;0.40;79.60;99089.78;4961577;28;20051;-89
2023/12/02 07:35:52;;;;;;;39.38;13.10;;;;;;;0.22;79.96;99095.13;4945197;28;20428;-89
2023/12/02 07:38:22;;;;;;;40.17;14.48;;;;;;;0.21;79.82;99097.84;4916231;28;20050;-90
2023/12/02 07:40:52;;;;;;;;;;;;;;;0.17;79.64;99102.38;4946322;28;20114;-88
2023/12/02 07:43:19;;;;;;;40.38;13.15;;;;;;;0.29;78.88;99100.03;4956330;28;19929;-89
2023/12/02 07:45:46;;;;;;;42.45;13.15;;;;;;;0.21;78.85;99101.28;4965599;28;20101;-87
2023/12/02 07:48:13;;;;;;;39.20;12.43;;;;;;;0.29;79.85;99100.03;4967321;28;20475;-89
2023/12/02 07:50:40;;;;;;;36.38;11.63;;;;;;;0.33;79.61;99106.72;4964441;28;20054;-89
2023/12/02 07:53:07;;;;;;;35.10;11.57;;;;;;;0.25;78.76;99108.94;4975228;28;20048;-89
2023/12/02 07:55:33;;;;;;;33.60;12.23;;;;;;;0.29;78.74;99113.06;4984866;28;20046;-89
2023/12/02 07:58:01;;;;;;;36.08;11.45;;;;;;;0.36;79.17;99123.06;4971149;28;20050;-88
2023/12/02 08:00:28;;;;;;;38.78;12.82;;;;;;;0.27;78.34;99125.38;4981317;28;20553;-89
2023/12/02 08:02:55;;;;;;;39.72;13.13;;;;;;;0.30;78.68;99125.19;4928231;28;20058;-88
2023/12/02 08:05:22;;;;;;;33.58;12.25;;;;;;;0.22;77.71;99130.84;4942760;28;20045;-88
2023/12/02 08:07:51;;;;;;;36.85;12.05;;;;;;;0.16;78.21;99132.06;4947883;28;20549;-90
2023/12/02 08:10:18;;;;;;;38.08;12.48;;;;;;;0.25;78.91;99140.28;4947432;28;20105;-88
2023/12/02 08:12:45;;;;;;;37.22;11.25;;;;;;;0.20;77.84;99127.47;4980153;28;21259;-89
2023/12/02 08:15:12;;;;;;;39.97;12.73;;;;;;;0.24;78.56;99144.66;4980299;28;20054;-90
2023/12/02 08:17:39;;;;;;;40.05;13.00;;;;;;;0.28;78.66;99146.19;4963156;28;20396;-89
2023/12/02 08:20:06;;;;;;;39.15;12.10;;;;;;;0.20;77.57;99154.47;4947652;28;20051;-89
2023/12/02 08:22:34;;;;;;;38.05;11.77;;;;;;;0.21;77.44;99152.69;4963195;28;20134;-89
2023/12/02 08:25:00;;;;;;;39.08;12.65;;;;;;;0.21;78.09;99148.28;4975691;28;20055;-89
2023/12/02 08:27:27;;;;;;;35.05;13.15;;;;;;;0.27;76.98;99157.53;4945904;28;20050;-89
2023/12/02 08:29:54;;;;;;;35.78;12.55;;;;;;;0.17;77.24;99144.16;4943785;28;20047;-88
2023/12/02 08:32:22;;;;;;;32.95;11.43;;;;;;;0.21;77.99;99165.75;4943790;28;20054;-89
2023/12/02 08:34:48;;;;;;;37.10;11.68;;;;;;;0.31;77.29;99166.91;4953379;28;20057;-89
2023/12/02 08:37:15;;;;;;;41.25;12.98;;;;;;;0.25;76.56;99169.84;4934006;28;20039;-89
2023/12/02 08:39:42;;;;;;;33.17;11.45;;;;;;;0.09;76.05;99175.09;4936019;28;20141;-89
2023/12/02 08:42:09;;;;;;;42.03;12.13;;;;;;;0.04;77.12;99182.34;4946375;28;20046;-89
2023/12/02 08:44:37;;;;;;;39.35;12.27;;;;;;;0.08;77.00;99189.09;4941426;28;20051;-90
2023/12/02 08:47:06;;;;;;;36.35;12.23;;;;;;;0.14;77.19;99200.94;4962495;28;20150;-90
2023/12/02 08:49:33;;;;;;;33.25;12.48;;;;;;;0.18;77.31;99195.47;4963337;28;20411;-90
2023/12/02 08:52:03;;;;;;;34.67;10.43;;;;;;;0.11;76.67;99211.56;4963010;28;20054;-88
2023/12/02 08:54:30;;;;;;;33.42;11.02;;;;;;;0.20;76.69;99219.72;4930584;28;20046;-90
2023/12/02 08:56:57;;;;;;;30.60;10.75;;;;;;;0.10;75.46;99225.53;4962166;28;20054;-88
2023/12/02 08:59:24;;;;;;;33.90;11.45;;;;;;;-0.02;75.61;99229.66;4963287;28;20586;-90
2023/12/02 09:01:50;;;;;;;31.30;11.35;;;;;;;-0.11;75.18;99235.38;4962613;28;20447;-89
2023/12/02 09:04:18;;;;;;;28.02;10.68;;;;;;;0.01;76.22;99245.16;4945986;28;20522;-89
2023/12/02 09:06:45;;;;;;;29.58;10.15;;;;;;;-0.05;76.28;99254.16;4963406;28;20101;-89
2023/12/02 09:09:11;;;;;;;27.42;9.15;;;;;;;-0.07;76.02;99247.34;4946995;28;20074;-89
2023/12/02 09:11:41;;;;;;;27.60;8.80;;;;;;;-0.08;76.24;99249.09;4962347;28;20070;-90
2023/12/02 09:14:08;;;;;;;24.20;9.25;;;;;;;-0.16;75.97;99250.44;4931495;28;20062;-88
2023/12/02 09:16:35;;;;;;;30.73;11.70;;;;;;;-0.09;75.81;99262.25;4931082;28;20042;-89
2023/12/02 09:19:04;;;;;;;22.67;9.02;;;;;;;-0.02;75.98;99263.59;4966498;28;20073;-89
2023/12/02 09:21:43;;;;;;;23.38;9.20;;;;;;;-0.12;75.55;99270.25;4946479;28;20447;-89
2023/12/02 09:24:40;;;;;;;26.40;8.88;;;;;;;-0.16;75.58;99272.16;4974354;28;20109;-89
2023/12/02 09:27:07;;;;;;;24.75;9.63;;;;;;;-0.09;76.23;99280.50;4966082;28;20039;-89
2023/12/02 09:29:41;;;;;;;27.25;9.10;;;;;;;-0.15;75.73;99292.13;4957654;28;20152;-89
2023/12/02 09:32:17;;;;;;;20.05;7.75;;;;;;;-0.04;75.40;99300.22;4930823;28;20047;-89
2023/12/02 09:34:50;;;;;;;19.85;8.10;;;;;;;-0.06;75.43;99298.59;4945259;28;20059;-90
2023/12/02 09:37:45;;;;;;;18.65;7.10;;;;;;;-0.19;74.64;99292.34;4946254;28;20392;-89
2023/12/02 09:40:21;;;;;;;24.17;7.32;;;;;;;-0.21;74.92;99300.25;4961571;28;20556;-89
2023/12/02 09:43:27;;;;;;;24.27;8.00;;;;;;;-0.03;75.18;99314.09;4945946;28;20086;-90
2023/12/02 09:46:07;;;;;;;22.98;8.15;;;;;;;-0.29;74.44;99321.53;4946256;28;20057;-89
2023/12/02 09:48:59;;;;;;;29.67;12.25;;;;;;;-0.22;75.11;99316.84;4962091;28;20066;-88
2023/12/02 09:51:48;;;;;;;18.77;7.13;;;;;;;-0.27;74.63;99317.09;4945927;28;20058;-89
2023/12/02 09:54:36;;;;;;;16.98;7.10;;;;;;;-0.17;74.64;99311.38;4960419;28;20178;-90
2023/12/02 09:57:36;;;;;;;23.33;8.05;;;;;;;-0.23;74.83;99307.31;4945688;28;20492;-90
2023/12/02 10:00:15;;;;;;;23.90;8.15;;;;;;;-0.25;74.59;99325.69;4929523;28;20046;-90
2023/12/02 10:03:12;;;;;;;16.92;6.82;;;;;;;-0.22;74.48;99316.84;4963076;28;20051;-90
2023/12/02 10:06:03;;;;;;;17.17;6.80;;;;;;;-0.29;73.37;99334.56;4957757;28;20059;-89
2023/12/02 10:09:00;;;;;;;16.10;6.60;;;;;;;-0.24;73.56;99327.34;4913829;28;20047;-90
2023/12/02 10:11:35;;;;;;;16.25;7.68;;;;;;;-0.28;73.75;99325.84;4910508;28;20619;-90
2023/12/02 10:14:10;;;;;;;16.70;7.32;;;;;;;-0.33;73.13;99322.63;4910345;28;20402;-90
2023/12/02 10:16:38;;;;;;;17.88;7.50;;;;;;;-0.22;73.57;99327.28;4939502;28;20054;-89
2023/12/02 10:19:15;;;;;;;16.15;5.75;;;;;;;-0.15;73.28;99315.59;4961416;28;20043;-89
2023/12/02 10:21:43;;;;;;;15.82;6.05;;;;;;;-0.29;73.37;99333.75;4941644;28;20571;-90
2023/12/02 10:24:11;;;;;;;15.85;6.15;;;;;;;-0.38;73.50;99336.81;4945381;28;20407;-90
2023/12/02 10:26:51;;;;;;;17.40;6.38;;;;;;;-0.43;73.80;99334.47;4945102;28;20047;-89
2023/12/02 10:29:24;;;;;;;15.38;5.82;;;;;;;-0.46;73.76;99338.06;4960522;28;20062;-88
2023/12/02 10:32:00;;;;;;;;;;;;;;;-0.55;72.93;99342.91;4945349;28;20582;-89
2023/12/02 10:34:45;;;;;;;14.82;6.47;;;;;;;-0.36;73.82;99340.19;4947823;28;19925;-90
2023/12/02 10:37:13;;;;;;;17.15;6.70;;;;;;;-0.47;73.41;99344.19;4960803;28;20318;-89
2023/12/02 10:39:46;;;;;;;11.90;5.57;;;;;;;-0.39;73.80;99351.63;4959089;28;20061;-89
2023/12/02 10:42:19;;;;;;;16.48;5.45;;;;;;;-0.40;73.92;99346.50;4939647;28;22603;-89
2023/12/02 10:45:05;;;;;;;16.33;6.43;;;;;;;-0.48;72.93;99337.31;4968424;28;20484;-89
2023/12/02 10:47:32;;;;;;;11.85;6.25;;;;;;;-0.32;73.73;99341.72;4936781;28;20074;-89
2023/12/02 10:50:00;;;;;;;14.15;6.40;;;;;;;-0.39;73.82;99351.63;4927762;28;20467;-89
2023/12/02 10:52:28;;;;;;;18.35;7.35;;;;;;;-0.26;74.01;99352.66;4943710;28;20452;-88
2023/12/02 10:55:01;;;;;;;19.00;6.80;;;;;;;-0.31;73.13;99362.50;4950208;28;20101;-89
2023/12/02 10:57:29;;;;;;;21.02;7.55;;;;;;;-0.22;73.17;99369.03;4944005;28;20062;-88
2023/12/02 11:00:07;;;;;;;16.90;6.68;;;;;;;-0.19;72.88;99365.41;4943713;28;20047;-89
2023/12/02 11:02:50;;;;;;;13.60;5.82;;;;;;;-0.31;71.92;99359.06;4942249;28;20102;-89
2023/12/02 11:05:30;;;;;;;13.82;6.43;;;;;;;-0.20;72.20;99366.31;4954180;28;20175;-89
2023/12/02 11:08:07;;;;;;;15.32;6.35;;;;;;;-0.28;72.55;99366.72;4931105;28;20047;-89
2023/12/02 11:10:47;;;;;;;11.15;6.55;;;;;;;-0.36;72.67;99369.72;4958825;28;20129;-89
2023/12/02 11:13:21;;;;;;;16.00;5.68;;;;;;;-0.27;72.91;99371.03;4960497;28;20361;-89
2023/12/02 11:16:14;;;;;;;16.95;6.88;;;;;;;-0.26;72.64;99375.31;4943145;28;20046;-90
2023/12/02 11:18:59;;;;;;;13.93;4.97;;;;;;;-0.34;72.38;99375.72;4943518;28;20979;-90
2023/12/02 11:22:01;;;;;;;16.10;6.97;;;;;;;-0.42;72.66;99377.88;4931137;28;20097;-89
2023/12/02 11:24:44;;;;;;;13.77;6.03;;;;;;;-0.38;72.84;99382.03;4953036;28;20051;-89
2023/12/02 11:27:32;;;;;;;16.35;6.32;;;;;;;-0.37;72.30;99383.69;4952616;28;20819;-89
2023/12/02 11:30:14;;;;;;;14.57;5.93;;;;;;;-0.30;72.53;99390.28;4956090;28;20098;-89
2023/12/02 11:33:04;;;;;;;11.20;5.88;;;;;;;-0.27;72.43;99399.72;4955155;28;20077;-88
2023/12/02 11:35:40;;;;;;;10.98;5.70;;;;;;;-0.22;72.38;99401.19;4939629;28;20512;-89
2023/12/02 11:38:19;;;;;;;20.65;8.20;;;;;;;-0.33;72.00;99415.69;4942786;28;20074;-90